Time;durP1;ratioP1;P1;durP2;ratioP2;P2;SDS_P1;SDS_P2;PMS_P1;PMS_P2;Temp;Humidity;BMP_temperature;BMP_pressure;BME280_temperature;BME280_humidity;BME280_pressure;Samples;Min_cycle;Max_cycle;Signal;HPM_P1;HPM_P2
2021/03/29 03:03:00;;;;;;;39.03;22.13;;;;;;;-1.66;100.00;101340.11;1828601;76;21008;-61
2021/03/29 03:05:32;;;;;;;33.25;18.82;;;;;;;-1.68;100.00;101332.13;1870160;75;21117;-61
2021/03/29 03:08:01;;;;;;;28.95;14.95;;;;;;;-1.64;100.00;101329.33;1833218;76;21168;-61
2021/03/29 03:10:30;;;;;;;27.73;16.70;;;;;;;-1.51;100.00;101330.38;1842344;76;21119;-61
2021/03/29 03:12:58;;;;;;;31.33;15.75;;;;;;;-1.38;100.00;101329.73;1825040;76;21185;-61
2021/03/29 03:15:28;;;;;;;26.93;15.08;;;;;;;-1.28;100.00;101330.45;1851081;76;21892;-61
2021/03/29 03:18:00;;;;;;;25.30;14.60;;;;;;;-1.19;100.00;101332.16;1848804;76;21528;-61
2021/03/29 03:20:30;;;;;;;25.32;15.38;;;;;;;-1.11;100.00;101330.02;1848992;76;21093;-61
2021/03/29 03:23:04;;;;;;;26.90;15.83;;;;;;;-1.05;100.00;101333.08;1842687;76;21113;-61
2021/03/29 03:25:35;;;;;;;39.23;22.50;;;;;;;-0.97;100.00;101335.69;1841929;76;21105;-61
2021/03/29 03:28:09;;;;;;;39.78;24.85;;;;;;;-0.96;100.00;101336.88;1828737;76;21193;-61
2021/03/29 03:30:41;;;;;;;47.43;26.68;;;;;;;-1.00;100.00;101335.38;1845302;77;21616;-61
2021/03/29 03:33:10;;;;;;;46.05;27.60;;;;;;;-1.07;100.00;101329.76;1852640;76;21192;-61
2021/03/29 03:35:40;;;;;;;52.20;28.83;;;;;;;-1.07;100.00;101334.87;1844060;76;20959;-62
2021/03/29 03:38:22;;;;;;;51.00;30.05;;;;;;;-0.97;100.00;101334.41;1840544;76;21100;-61
2021/03/29 03:40:58;;;;;;;46.83;28.00;;;;;;;-0.73;100.00;101330.50;1849479;76;22210;-61
2021/03/29 03:43:29;;;;;;;41.70;27.25;;;;;;;-0.42;100.00;101333.47;1849861;76;21181;-60
2021/03/29 03:46:05;;;;;;;50.93;28.80;;;;;;;-0.15;100.00;101334.11;1810440;78;21572;-61
2021/03/29 03:48:33;;;;;;;54.27;34.75;;;;;;;0.11;100.00;101337.28;1833642;76;21046;-62
2021/03/29 03:51:06;;;;;;;56.33;34.03;;;;;;;0.40;100.00;101328.34;1840895;76;21047;-63
2021/03/29 03:53:34;;;;;;;58.20;34.10;;;;;;;0.73;100.00;101331.92;1829563;76;21251;-62
2021/03/29 03:56:04;;;;;;;52.43;33.92;;;;;;;1.17;100.00;101333.02;1838002;76;20939;-62
2021/03/29 03:58:32;;;;;;;52.10;33.55;;;;;;;1.72;100.00;101333.02;1832648;76;20950;-63
2021/03/29 04:01:01;;;;;;;62.85;35.80;;;;;;;2.29;100.00;101330.92;1829757;76;20946;-62
2021/03/29 04:03:30;;;;;;;56.53;37.38;;;;;;;2.88;100.00;101323.92;1831534;77;21228;-61
2021/03/29 04:05:59;;;;;;;61.48;36.98;;;;;;;3.53;100.00;101326.61;1823746;77;21360;-61
2021/03/29 04:08:30;;;;;;;58.13;38.60;;;;;;;4.21;100.00;101319.88;1827652;77;21073;-61
2021/03/29 04:10:59;;;;;;;55.45;38.65;;;;;;;4.92;100.00;101323.83;1818834;77;21547;-61
2021/03/29 04:13:29;;;;;;;55.95;38.05;;;;;;;5.62;100.00;101319.98;1811984;77;21215;-61
2021/03/29 04:16:01;;;;;;;54.27;37.85;;;;;;;6.39;100.00;101311.89;1821840;77;21524;-61
2021/03/29 04:18:30;;;;;;;51.00;37.40;;;;;;;7.29;100.00;101314.92;1833458;77;20904;-63
2021/03/29 04:21:01;;;;;;;56.63;39.60;;;;;;;8.18;100.00;101314.22;1833170;77;20978;-61
2021/03/29 04:23:30;;;;;;;56.97;39.53;;;;;;;9.09;100.00;101307.02;1829076;77;21779;-61
2021/03/29 04:25:59;;;;;;;50.20;39.03;;;;;;;9.96;100.00;101313.62;1831688;77;21777;-62
2021/03/29 04:28:27;;;;;;;50.57;35.73;;;;;;;11.38;100.00;101313.83;1832883;77;21845;-62
2021/03/29 04:30:55;;;;;;;44.23;34.43;;;;;;;11.38;100.00;101313.83;1830326;77;21570;-63
2021/03/29 04:33:24;;;;;;;43.10;34.67;;;;;;;11.99;100.00;101313.01;1795891;77;22358;-63
2021/03/29 04:35:55;;;;;;;46.33;34.50;;;;;;;12.60;100.00;101313.31;1824757;77;21861;-62
2021/03/29 04:38:23;;;;;;;44.97;34.27;;;;;;;13.22;97.67;101307.23;1829308;77;22052;-62
2021/03/29 04:40:53;;;;;;;47.10;35.43;;;;;;;13.67;88.22;101313.46;1829999;77;20903;-64
2021/03/29 04:43:21;;;;;;;45.37;34.13;;;;;;;14.09;79.96;101311.58;1854874;76;21621;-62
2021/03/29 04:45:50;;;;;;;44.37;35.23;;;;;;;14.48;73.74;101308.69;1856312;76;21196;-63
2021/03/29 04:48:19;;;;;;;46.00;36.77;;;;;;;14.90;68.31;101312.94;1850934;76;21517;-61
2021/03/29 04:50:47;;;;;;;42.07;34.17;;;;;;;15.22;62.32;101319.52;1862421;76;21533;-66
2021/03/29 04:53:15;;;;;;;43.07;32.80;;;;;;;15.52;57.60;101322.83;1831529;77;21102;-63
2021/03/29 04:55:45;;;;;;;47.30;39.07;;;;;;;15.76;55.80;101323.77;1859685;76;21041;-63
2021/03/29 04:58:13;;;;;;;41.60;35.93;;;;;;;16.22;53.01;101327.72;1859103;76;22197;-62
2021/03/29 05:00:41;;;;;;;37.37;31.10;;;;;;;16.63;48.68;101325.08;1835761;77;21526;-63
2021/03/29 05:03:11;;;;;;;40.13;29.83;;;;;;;16.83;45.55;101323.86;1843316;76;21180;-64
2021/03/29 05:05:40;;;;;;;34.93;29.30;;;;;;;16.89;44.06;101324.36;1832041;77;22100;-63
2021/03/29 05:08:08;;;;;;;37.47;30.60;;;;;;;17.04;44.94;101321.56;1837713;77;22185;-64
2021/03/29 05:10:40;;;;;;;44.50;30.47;;;;;;;17.27;42.49;101315.92;1835448;77;21524;-65
2021/03/29 05:13:08;;;;;;;31.13;25.80;;;;;;;17.40;42.37;101321.73;1811382;78;21042;-62
2021/03/29 05:15:38;;;;;;;32.50;24.63;;;;;;;17.68;41.77;101324.16;1817476;76;21639;-62
2021/03/29 05:18:07;;;;;;;27.50;19.03;;;;;;;17.98;39.04;101321.93;1816967;76;21123;-64
2021/03/29 05:20:36;;;;;;;26.17;18.50;;;;;;;18.14;37.92;101316.72;1809168;76;21189;-65
2021/03/29 05:23:06;;;;;;;26.27;17.87;;;;;;;18.04;36.05;101329.03;1814091;78;21539;-65
2021/03/29 05:25:34;;;;;;;32.23;20.60;;;;;;;17.57;36.28;101326.89;1809683;76;21201;-64
2021/03/29 05:28:04;;;;;;;29.10;19.93;;;;;;;16.96;36.94;101322.56;1811611;77;21105;-64
2021/03/29 05:30:33;;;;;;;28.43;20.80;;;;;;;16.40;38.16;101332.45;1813638;77;21111;-63
2021/03/29 05:33:03;;;;;;;33.63;25.60;;;;;;;15.85;39.24;101335.46;1819173;76;21576;-67
2021/03/29 05:35:32;;;;;;;36.80;32.07;;;;;;;15.26;41.92;101334.71;1824904;76;21626;-64
2021/03/29 05:38:01;;;;;;;45.45;36.45;;;;;;;13.79;50.26;101340.89;1807020;78;21290;-65
2021/03/29 05:40:30;;;;;;;42.17;32.83;;;;;;;13.79;50.26;101340.89;1808930;76;21165;-63
2021/03/29 05:42:59;;;;;;;34.47;28.53;;;;;;;13.15;53.42;101345.09;1804014;76;21014;-64
2021/03/29 05:45:31;;;;;;;34.47;21.63;;;;;;;12.62;56.85;101348.78;1818227;78;21355;-62
2021/03/29 05:47:59;;;;;;;30.60;19.23;;;;;;;12.24;60.16;101350.88;1799213;77;21579;-64
2021/03/29 05:50:28;;;;;;;32.27;22.10;;;;;;;11.87;59.46;101353.03;1816402;76;21205;-63
2021/03/29 05:52:57;;;;;;;26.00;15.67;;;;;;;11.56;61.97;101346.32;1785957;78;21564;-63
2021/03/29 05:55:33;;;;;;;21.50;14.58;;;;;;;11.37;64.08;101353.16;1812260;77;21243;-64
2021/03/29 06:00:40;;;;;;;34.03;19.82;;;;;;;11.15;67.08;101351.97;1808336;78;21217;-64
2021/03/29 06:03:34;;;;;;;33.95;21.62;;;;;;;11.06;70.08;101355.52;1821039;76;21467;-64
2021/03/29 06:06:17;;;;;;;37.80;25.77;;;;;;;10.98;70.48;101360.72;1820234;77;21104;-63
2021/03/29 06:08:49;;;;;;;37.63;27.07;;;;;;;10.75;73.48;101359.17;1815807;77;21918;-64
2021/03/29 06:11:40;;;;;;;47.43;32.70;;;;;;;10.56;74.55;101360.23;1824135;76;21352;-64
2021/03/29 06:14:21;;;;;;;42.80;29.50;;;;;;;10.48;76.56;101357.91;1821950;76;21271;-63
2021/03/29 06:17:08;;;;;;;43.37;30.47;;;;;;;10.56;78.01;101362.34;1853094;77;21734;-63
2021/03/29 06:19:53;;;;;;;37.90;29.03;;;;;;;10.71;78.59;101360.78;1831411;77;21655;-63
2021/03/29 06:22:35;;;;;;;49.83;32.10;;;;;;;10.99;79.09;101363.68;1845643;77;21736;-62
2021/03/29 06:25:20;;;;;;;38.70;28.13;;;;;;;11.29;78.56;101368.78;1833881;77;21881;-63
2021/03/29 06:27:56;;;;;;;37.33;23.87;;;;;;;11.52;75.19;101375.54;1821958;76;21891;-64
2021/03/29 06:30:36;;;;;;;31.90;19.80;;;;;;;11.66;68.63;101365.73;1843267;77;20973;-62
2021/03/29 06:33:13;;;;;;;28.23;19.77;;;;;;;11.66;68.63;101365.73;1840146;77;21427;-64
2021/03/29 06:35:43;;;;;;;29.77;17.87;;;;;;;11.85;64.46;101368.54;1834548;77;21047;-65
2021/03/29 06:38:34;;;;;;;20.40;14.23;;;;;;;12.20;60.94;101373.07;1839910;77;21241;-64
2021/03/29 06:41:03;;;;;;;17.13;11.70;;;;;;;12.59;57.28;101373.16;1842902;77;21174;-67
2021/03/29 06:43:38;;;;;;;13.47;10.10;;;;;;;12.99;52.56;101363.48;1848683;75;21126;-64
2021/03/29 06:46:08;;;;;;;15.33;9.20;;;;;;;13.42;48.04;101364.75;1821781;77;20997;-68
2021/03/29 06:48:39;;;;;;;14.95;10.95;;;;;;;13.85;46.59;101363.25;1822848;77;21425;-66
2021/03/29 06:51:26;;;;;;;19.17;13.60;;;;;;;14.41;45.54;101360.75;1816859;76;21253;-63
2021/03/29 06:54:08;;;;;;;18.30;13.70;;;;;;;14.71;43.52;101371.58;1816495;77;21641;-64
2021/03/29 06:56:45;;;;;;;23.03;16.00;;;;;;;14.69;42.03;101372.24;1807529;77;21162;-63
2021/03/29 06:59:17;;;;;;;25.70;15.93;;;;;;;14.99;42.39;101371.70;1810826;77;21505;-64
2021/03/29 07:01:50;;;;;;;15.57;9.97;;;;;;;15.09;40.98;101366.17;1812620;77;21266;-64
2021/03/29 07:04:22;;;;;;;16.20;10.80;;;;;;;15.07;39.65;101366.84;1834818;76;21548;-65
2021/03/29 07:06:51;;;;;;;11.43;8.13;;;;;;;14.96;39.55;101369.44;1808713;77;21108;-63
2021/03/29 07:09:20;;;;;;;17.17;12.17;;;;;;;15.07;39.09;101370.78;1836409;76;21542;-67
2021/03/29 07:11:48;;;;;;;15.73;11.07;;;;;;;15.27;39.40;101367.88;1835548;76;21506;-64
2021/03/29 07:14:21;;;;;;;15.50;8.57;;;;;;;15.47;39.57;101364.63;1833990;76;21154;-64
2021/03/29 07:16:53;;;;;;;10.93;6.70;;;;;;;15.62;37.40;101364.06;1830822;76;21165;-65
2021/03/29 07:19:23;;;;;;;10.32;6.35;;;;;;;15.53;37.01;101367.33;1829120;76;22599;-66
2021/03/29 07:21:52;;;;;;;13.17;7.20;;;;;;;15.56;37.58;101376.13;1830159;77;21172;-64
2021/03/29 07:24:21;;;;;;;8.40;5.13;;;;;;;15.58;37.48;101373.33;1828002;76;20990;-64
2021/03/29 07:26:57;;;;;;;12.77;7.33;;;;;;;15.49;36.99;101373.96;1786304;76;21137;-65
2021/03/29 07:29:37;;;;;;;11.37;6.27;;;;;;;15.45;38.44;101377.13;1828456;76;22096;-63
2021/03/29 07:32:06;;;;;;;10.47;6.70;;;;;;;15.44;38.73;101380.27;1832951;76;21576;-62
2021/03/29 07:34:48;;;;;;;9.77;6.43;;;;;;;15.58;38.72;101383.34;1814099;76;21065;-63
2021/03/29 07:37:55;;;;;;;14.73;7.20;;;;;;;15.86;38.03;101381.27;1823648;77;21125;-63
2021/03/29 07:40:36;;;;;;;10.40;7.27;;;;;;;16.11;37.00;101380.86;1827029;77;21022;-64
2021/03/29 07:43:17;;;;;;;12.07;7.03;;;;;;;16.33;36.92;101382.42;1830204;77;21244;-61
2021/03/29 07:45:50;;;;;;;13.93;8.28;;;;;;;16.41;35.56;101386.72;1829562;76;21839;-63
2021/03/29 07:48:40;;;;;;;12.37;5.93;;;;;;;16.19;35.91;101384.66;1822354;77;21199;-63
2021/03/29 07:51:15;;;;;;;13.78;7.55;;;;;;;15.67;35.19;101379.29;1831936;76;29080;-63
2021/03/29 07:53:52;;;;;;;12.67;7.10;;;;;;;15.17;36.22;101385.75;1836089;77;21172;-62
2021/03/29 07:56:39;;;;;;;11.07;6.60;;;;;;;14.78;36.99;101388.73;1841036;76;22221;-64
2021/03/29 07:59:07;;;;;;;11.27;7.03;;;;;;;14.72;37.24;101380.27;1831987;77;21146;-64
2021/03/29 08:02:00;;;;;;;11.83;7.63;;;;;;;14.81;37.40;101388.34;1840263;77;21224;-63
2021/03/29 08:05:03;;;;;;;14.67;7.47;;;;;;;14.96;36.50;101382.56;1826801;77;21145;-62
2021/03/29 08:11:10;;;;;;;12.10;7.30;;;;;;;15.19;35.35;101373.73;1831207;75;23382;-64
2021/03/29 08:13:50;;;;;;;161.67;123.20;;;;;;;15.24;35.17;101373.50;1818229;76;20990;-62
2021/03/29 08:16:28;;;;;;;12.43;9.13;;;;;;;15.40;34.24;101375.58;1816269;76;21416;-62
2021/03/29 08:19:19;;;;;;;61.93;49.33;;;;;;;15.45;32.90;101370.05;1817229;78;21073;-66
2021/03/29 08:22:09;;;;;;;28.98;24.60;;;;;;;15.64;33.40;101367.30;1821836;78;28588;-63
2021/03/29 08:24:42;;;;;;;10.95;8.15;;;;;;;16.14;32.57;101368.14;1819592;78;21073;-63
2021/03/29 08:27:23;;;;;;;10.83;7.63;;;;;;;16.49;32.28;101366.82;1785397;78;21081;-64
2021/03/29 08:29:56;;;;;;;13.67;6.17;;;;;;;16.81;28.55;101361.92;1815162;78;21203;-66
2021/03/29 08:32:34;;;;;;;10.23;4.93;;;;;;;16.60;25.30;101362.83;1820913;78;21260;-64
2021/03/29 08:35:15;;;;;;;12.73;5.47;;;;;;;16.18;27.27;101360.17;1825676;76;21009;-62
2021/03/29 08:37:47;;;;;;;9.20;4.50;;;;;;;16.34;26.50;101360.87;1823381;76;21171;-67
2021/03/29 08:40:25;;;;;;;7.60;4.20;;;;;;;16.19;26.23;101360.98;1817856;78;21220;-62
2021/03/29 08:42:59;;;;;;;6.63;3.93;;;;;;;15.85;27.58;101358.62;1783083;78;21647;-63
2021/03/29 08:45:28;;;;;;;6.30;3.73;;;;;;;15.85;28.10;101360.44;1820795;76;20919;-67
2021/03/29 08:48:02;;;;;;;4.47;2.30;;;;;;;16.19;28.53;101362.30;1820731;76;21126;-64
2021/03/29 08:50:38;;;;;;;6.47;3.67;;;;;;;16.67;26.55;101355.78;1823624;76;21633;-64
2021/03/29 08:53:08;;;;;;;6.63;4.47;;;;;;;16.94;28.87;101360.16;1818664;76;21115;-62
2021/03/29 08:55:39;;;;;;;6.78;3.22;;;;;;;17.29;28.71;101354.77;1821212;76;22152;-67
2021/03/29 08:58:09;;;;;;;5.92;2.83;;;;;;;17.14;28.09;101358.89;1822605;76;21123;-63
2021/03/29 09:00:39;;;;;;;5.03;3.17;;;;;;;16.33;27.22;101358.75;1821805;78;21199;-62
2021/03/29 09:03:21;;;;;;;10.45;3.55;;;;;;;15.58;28.47;101366.76;1819678;76;21609;-61
2021/03/29 09:05:49;;;;;;;5.42;3.15;;;;;;;15.27;28.88;101361.31;1822364;77;21010;-63
2021/03/29 09:08:18;;;;;;;6.20;3.10;;;;;;;15.21;29.12;101356.80;1816088;76;21206;-63
2021/03/29 09:10:49;;;;;;;5.92;3.62;;;;;;;15.30;29.34;101355.69;1814651;76;21072;-63
2021/03/29 09:13:18;;;;;;;7.00;3.47;;;;;;;15.44;30.02;101359.75;1814393;76;21584;-66
2021/03/29 09:15:49;;;;;;;6.07;3.47;;;;;;;15.40;29.65;101355.87;1759188;78;21546;-62
2021/03/29 09:18:18;;;;;;;6.50;3.45;;;;;;;15.23;29.15;101354.81;1819598;76;21591;-66
2021/03/29 09:20:50;;;;;;;5.45;3.17;;;;;;;14.92;29.37;101356.37;1819337;76;22176;-63
2021/03/29 09:23:20;;;;;;;8.45;3.62;;;;;;;14.57;30.27;101357.46;1816899;78;21029;-62
2021/03/29 09:25:51;;;;;;;6.00;3.00;;;;;;;14.04;30.93;101362.43;1823124;78;21231;-63
2021/03/29 09:31:14;;;;;;;5.33;3.17;;;;;;;13.18;32.21;101357.00;1815811;78;20477;-66
2021/03/29 09:33:42;;;;;;;5.87;3.17;;;;;;;12.90;33.30;101360.91;1819941;78;21382;-63
2021/03/29 09:36:15;;;;;;;5.47;3.40;;;;;;;12.85;33.80;101350.16;1825524;76;21622;-63
2021/03/29 09:38:45;;;;;;;6.33;2.90;;;;;;;13.18;33.77;101353.89;1820813;78;21665;-64
2021/03/29 09:41:23;;;;;;;5.10;3.00;;;;;;;13.48;32.57;101352.74;1824749;76;21215;-60
2021/03/29 09:43:53;;;;;;;5.83;3.13;;;;;;;13.66;32.18;101348.52;1821387;76;21916;-64
2021/03/29 09:46:33;;;;;;;7.43;3.50;;;;;;;13.87;31.32;101347.36;1820361;76;21344;-64
2021/03/29 09:49:05;;;;;;;4.50;2.87;;;;;;;14.13;31.21;101354.83;1820136;76;22611;-63
2021/03/29 09:51:33;;;;;;;6.50;3.60;;;;;;;14.70;29.86;101352.90;1819926;77;21636;-62
2021/03/29 09:54:33;;;;;;;18.00;10.37;;;;;;;14.70;29.86;101352.90;1820061;76;21180;-62
2021/03/29 09:57:20;;;;;;;10.07;5.20;;;;;;;14.82;29.30;101350.11;1815205;77;21183;-61
2021/03/29 09:59:49;;;;;;;16.80;10.10;;;;;;;15.20;29.13;101347.30;1813392;76;21238;-62
2021/03/29 10:02:25;;;;;;;21.93;11.57;;;;;;;15.73;28.02;101343.87;1814342;78;21139;-61
2021/03/29 10:05:02;;;;;;;88.30;49.90;;;;;;;16.50;28.07;101346.06;1823909;76;21151;-62
2021/03/29 10:07:30;;;;;;;19.87;10.17;;;;;;;17.58;27.36;101341.72;1816741;76;21549;-63
2021/03/29 10:10:04;;;;;;;5.90;3.87;;;;;;;18.34;25.45;101345.72;1817867;78;21212;-62
2021/03/29 10:12:34;;;;;;;6.37;3.30;;;;;;;18.41;24.96;101331.48;1812904;78;21468;-62
2021/03/29 10:15:11;;;;;;;4.33;2.70;;;;;;;18.28;25.01;101344.70;1808106;78;21671;-67
2021/03/29 10:17:39;;;;;;;7.07;2.80;;;;;;;18.15;24.51;101345.55;1778033;79;21212;-61
2021/03/29 10:20:16;;;;;;;6.87;3.08;;;;;;;17.94;25.23;101339.99;1775063;78;21165;-64
2021/03/29 10:22:44;;;;;;;4.87;2.90;;;;;;;17.86;24.61;101347.31;1809428;78;21172;-69
2021/03/29 10:25:22;;;;;;;3.77;2.70;;;;;;;17.90;24.85;101334.83;1808348;78;21688;-61
2021/03/29 10:27:55;;;;;;;5.40;2.20;;;;;;;17.96;24.99;101335.85;1810210;78;21212;-65
2021/03/29 10:30:26;;;;;;;7.07;3.27;;;;;;;17.98;24.77;101339.08;1812598;78;21195;-64
2021/03/29 10:32:59;;;;;;;6.97;3.43;;;;;;;17.59;24.65;101334.63;1809930;78;21141;-64
2021/03/29 10:35:29;;;;;;;6.83;3.37;;;;;;;17.11;25.17;101340.84;1811380;78;20982;-65
2021/03/29 10:37:57;;;;;;;5.93;3.23;;;;;;;16.32;25.60;101351.03;1811427;79;21437;-64
2021/03/29 10:40:27;;;;;;;7.23;3.50;;;;;;;15.46;26.70;101351.19;1811846;79;21037;-64
2021/03/29 10:42:56;;;;;;;7.97;4.17;;;;;;;14.84;27.78;101359.91;1808966;78;21587;-64
2021/03/29 10:45:24;;;;;;;6.00;3.90;;;;;;;14.42;28.57;101354.50;1813723;78;21199;-62
2021/03/29 10:47:53;;;;;;;8.90;4.30;;;;;;;13.97;29.37;101360.20;1810652;78;21177;-63
2021/03/29 10:50:23;;;;;;;5.07;3.63;;;;;;;13.56;29.51;101360.53;1808915;78;21314;-63
2021/03/29 10:52:51;;;;;;;5.17;3.00;;;;;;;13.10;30.01;101365.72;1809183;78;21167;-64
2021/03/29 10:55:20;;;;;;;5.77;3.53;;;;;;;12.80;30.80;101372.57;1810243;78;21159;-63
2021/03/29 10:57:48;;;;;;;6.10;2.80;;;;;;;12.83;31.29;101369.13;1812595;78;21116;-62
2021/03/29 11:00:18;;;;;;;4.57;2.57;;;;;;;13.05;31.06;101365.43;1812278;78;22344;-62
2021/03/29 11:02:46;;;;;;;12.70;4.17;;;;;;;13.15;31.04;101364.23;1812378;78;21339;-65
2021/03/29 11:05:16;;;;;;;6.20;2.83;;;;;;;13.43;31.11;101365.56;1811755;78;21239;-62
2021/03/29 11:07:45;;;;;;;5.30;3.47;;;;;;;13.43;31.11;101365.56;1810328;79;21041;-64
2021/03/29 11:10:14;;;;;;;5.97;3.20;;;;;;;13.72;30.34;101366.98;1806317;78;21113;-61
2021/03/29 11:12:42;;;;;;;7.40;3.80;;;;;;;13.90;29.89;101364.02;1810066;78;21247;-62
2021/03/29 11:15:13;;;;;;;6.23;2.67;;;;;;;13.93;29.95;101358.93;1811848;78;21259;-62
2021/03/29 11:17:42;;;;;;;;;;;;;;;13.96;29.86;101361.20;1813976;78;22268;-63
2021/03/29 11:20:11;;;;;;;5.03;2.40;;;;;;;13.92;29.63;101354.69;1813264;79;20173;-63
2021/03/29 11:22:39;;;;;;;5.90;2.90;;;;;;;13.77;29.51;101356.77;1809441;78;20993;-64
2021/03/29 11:25:08;;;;;;;7.00;3.13;;;;;;;13.74;29.90;101355.81;1811296;78;21604;-63
2021/03/29 11:27:36;;;;;;;8.87;2.83;;;;;;;13.76;30.39;101357.77;1772843;79;21133;-63
2021/03/29 11:30:09;;;;;;;5.07;2.47;;;;;;;13.70;30.87;101356.34;1810984;78;21029;-63
2021/03/29 11:32:36;;;;;;;;;;;;;;;13.39;32.05;101364.59;1806743;78;21155;-65
2021/03/29 11:35:06;;;;;;;8.87;3.60;;;;;;;13.12;32.43;101359.83;1804329;78;20322;-63
2021/03/29 11:37:36;;;;;;;7.27;3.33;;;;;;;12.87;32.64;101365.17;1805053;78;21888;-63
2021/03/29 11:40:11;;;;;;;9.47;2.77;;;;;;;12.74;33.16;101368.84;1803634;78;21908;-61
2021/03/29 11:42:40;;;;;;;7.73;2.70;;;;;;;12.60;33.25;101369.55;1779252;78;21816;-66
2021/03/29 11:45:10;;;;;;;4.93;2.67;;;;;;;12.34;34.20;101364.05;1812244;79;21875;-62
2021/03/29 11:47:39;;;;;;;7.33;2.60;;;;;;;12.07;34.95;101374.89;1810905;78;21850;-62
2021/03/29 11:50:13;;;;;;;11.07;3.23;;;;;;;11.93;35.25;101369.37;1815218;78;21665;-61
2021/03/29 11:52:43;;;;;;;5.30;2.93;;;;;;;11.90;35.91;101369.70;1812678;78;21319;-62
2021/03/29 11:55:12;;;;;;;7.75;2.85;;;;;;;11.89;35.77;101373.76;1805575;78;21928;-62
2021/03/29 11:57:42;;;;;;;5.60;2.70;;;;;;;11.67;35.77;101372.61;1804394;78;21563;-62
2021/03/29 12:00:48;;;;;;;6.27;2.77;;;;;;;11.67;35.77;101372.61;1814700;78;21480;-64
2021/03/29 12:05:52;;;;;;;8.80;3.27;;;;;;;11.40;36.50;101372.39;1727978;81;22223;-62
2021/03/29 12:13:43;;;;;;;11.60;3.97;;;;;;;11.48;37.38;101376.81;1728793;81;22102;-61
2021/03/29 12:16:14;;;;;;;4.83;2.67;;;;;;;11.48;37.38;101376.81;1720851;81;21573;-62
2021/03/29 12:18:51;;;;;;;5.25;2.62;;;;;;;11.57;37.12;101369.33;1723599;81;21579;-62
2021/03/29 12:21:20;;;;;;;7.12;3.75;;;;;;;11.54;36.33;101376.17;1724024;81;21674;-66
2021/03/29 12:23:52;;;;;;;6.13;3.13;;;;;;;11.35;36.98;101371.58;1729635;81;22511;-61
2021/03/29 12:26:24;;;;;;;5.72;2.60;;;;;;;11.20;37.54;101376.59;1726498;81;21382;-62
2021/03/29 12:28:54;;;;;;;6.00;2.73;;;;;;;11.11;37.52;101376.75;1718246;81;21597;-62
2021/03/29 12:31:22;;;;;;;6.17;2.63;;;;;;;11.06;37.97;101373.78;1723155;81;22514;-61
2021/03/29 12:33:51;;;;;;;5.77;2.70;;;;;;;11.05;37.71;101376.07;1719967;81;21449;-60
2021/03/29 12:36:21;;;;;;;4.13;2.13;;;;;;;11.05;37.49;101376.07;1720205;81;21453;-61
2021/03/29 12:38:57;;;;;;;3.93;2.07;;;;;;;11.08;37.83;101380.48;1690182;81;21376;-61
2021/03/29 12:41:22;;;;;;;5.60;2.30;;;;;;;11.13;37.66;101382.61;1720109;81;22321;-60
2021/03/29 12:44:00;;;;;;;5.60;2.97;;;;;;;11.20;37.65;101382.31;1721074;81;21205;-61
2021/03/29 12:46:24;;;;;;;7.20;3.10;;;;;;;11.19;36.46;101380.20;1719377;81;21855;-60
2021/03/29 12:48:53;;;;;;;6.13;2.20;;;;;;;11.14;36.84;101383.78;1725146;81;21721;-62
2021/03/29 12:51:23;;;;;;;4.13;2.17;;;;;;;11.13;36.50;101387.83;1722741;81;21843;-60
2021/03/29 12:53:55;;;;;;;6.37;3.20;;;;;;;11.16;36.52;101383.12;1721036;81;21545;-61
2021/03/29 12:56:23;;;;;;;6.08;2.70;;;;;;;11.14;36.76;101383.78;1725421;81;21407;-65
2021/03/29 12:58:53;;;;;;;6.30;2.83;;;;;;;11.14;36.84;101381.17;1721841;81;21296;-61
2021/03/29 13:01:24;;;;;;;6.20;3.20;;;;;;;11.16;36.24;101383.12;1723935;81;21436;-60
2021/03/29 13:03:55;;;;;;;6.07;2.90;;;;;;;11.09;36.56;101381.30;1718706;81;21412;-61
2021/03/29 13:06:29;;;;;;;9.00;3.10;;;;;;;11.04;37.20;101387.49;1721819;81;21846;-62
2021/03/29 13:09:01;;;;;;;6.90;2.70;;;;;;;11.10;37.35;101387.69;1690820;81;21289;-62
2021/03/29 13:11:29;;;;;;;6.80;2.55;;;;;;;11.19;36.69;101389.33;1724044;81;21146;-62
2021/03/29 13:13:59;;;;;;;5.60;2.50;;;;;;;11.24;36.47;101384.92;1721629;81;21238;-63
2021/03/29 13:16:29;;;;;;;3.80;2.37;;;;;;;11.27;36.52;101389.84;1718638;81;21390;-64
2021/03/29 13:18:58;;;;;;;7.37;2.77;;;;;;;11.28;36.09;101387.55;1722815;81;21102;-63
2021/03/29 13:21:28;;;;;;;7.23;2.93;;;;;;;11.28;36.52;101391.46;1718789;81;21392;-65
2021/03/29 13:23:58;;;;;;;6.57;3.00;;;;;;;11.27;36.45;101391.14;1723010;81;21411;-66
2021/03/29 13:26:27;;;;;;;6.97;3.10;;;;;;;11.26;36.60;101393.43;1722970;81;21567;-63
2021/03/29 13:28:56;;;;;;;9.00;3.47;;;;;;;11.21;35.98;101390.46;1722702;81;21864;-63
2021/03/29 13:31:25;;;;;;;7.73;3.07;;;;;;;11.14;36.51;101396.02;1719782;81;21842;-62
2021/03/29 13:33:54;;;;;;;5.60;2.80;;;;;;;11.08;36.14;101397.94;1720518;81;21549;-67
2021/03/29 13:36:22;;;;;;;8.13;3.37;;;;;;;11.03;36.71;101396.30;1724646;81;21332;-60
2021/03/29 13:38:52;;;;;;;5.73;3.07;;;;;;;11.04;36.80;101400.53;1722396;81;21291;-61
2021/03/29 13:41:22;;;;;;;5.65;2.95;;;;;;;11.08;36.98;101394.03;1722159;81;21795;-62
2021/03/29 13:43:51;;;;;;;5.73;2.63;;;;;;;11.06;36.87;101402.48;1727343;81;21566;-62
2021/03/29 13:46:19;;;;;;;7.83;2.97;;;;;;;10.87;36.90;101400.48;1724982;81;21461;-61
2021/03/29 13:48:49;;;;;;;4.67;2.50;;;;;;;10.68;37.36;101398.09;1721508;81;21364;-60
2021/03/29 13:51:19;;;;;;;;;;;;;;;10.51;37.48;101405.02;1725334;81;21211;-62
2021/03/29 13:53:57;;;;;;;6.47;2.43;;;;;;;10.37;37.82;101402.48;1724397;81;20218;-63
2021/03/29 13:56:23;;;;;;;5.20;2.60;;;;;;;10.36;38.23;101405.25;1691710;81;21850;-61
2021/03/29 13:58:54;;;;;;;4.42;2.50;;;;;;;10.34;37.90;101400.20;1719676;81;21496;-61
2021/03/29 14:01:24;;;;;;;5.77;2.63;;;;;;;10.31;37.82;101403.11;1723056;81;21593;-61
2021/03/29 14:03:53;;;;;;;6.10;2.67;;;;;;;10.25;37.49;101397.20;1727758;82;21452;-64
2021/03/29 14:06:23;;;;;;;4.67;2.17;;;;;;;10.18;37.68;101400.05;1715712;83;21626;-62
2021/03/29 14:08:52;;;;;;;4.83;2.33;;;;;;;10.14;37.60;101403.44;1705740;83;21137;-61
2021/03/29 14:11:23;;;;;;;4.43;2.73;;;;;;;10.09;37.65;101400.97;1728899;82;21338;-61
2021/03/29 14:13:52;;;;;;;9.07;3.60;;;;;;;10.07;37.66;101402.89;1717809;83;21407;-65
2021/03/29 14:16:21;;;;;;;6.30;2.70;;;;;;;10.03;37.64;101408.89;1745427;81;21457;-61
2021/03/29 14:18:51;;;;;;;4.50;2.17;;;;;;;10.00;37.50;101407.91;1719372;82;21315;-62
2021/03/29 14:21:22;;;;;;;4.83;2.47;;;;;;;9.94;37.57;101409.31;1705599;83;21370;-63
2021/03/29 14:23:52;;;;;;;6.85;2.92;;;;;;;9.85;37.79;101410.69;1723989;82;21393;-67
2021/03/29 14:26:21;;;;;;;7.07;3.63;;;;;;;9.77;38.63;101424.94;1745382;81;22515;-62
2021/03/29 14:28:50;;;;;;;9.13;4.60;;;;;;;9.68;38.82;101414.45;1717098;82;21443;-62
2021/03/29 14:31:21;;;;;;;13.53;5.97;;;;;;;9.62;39.28;101415.52;1703327;82;21556;-61
2021/03/29 14:33:53;;;;;;;11.50;4.35;;;;;;;9.54;40.10;101420.66;1701317;82;21876;-62
2021/03/29 14:39:28;;;;;;;12.73;5.53;;;;;;;9.26;42.17;101425.91;1709873;82;21630;-64
2021/03/29 14:44:35;;;;;;;9.83;3.50;;;;;;;8.99;47.13;101444.94;1745356;81;21141;-63
2021/03/29 14:47:09;;;;;;;9.50;3.55;;;;;;;8.77;50.80;101439.60;1730651;81;21265;-62
2021/03/29 14:49:39;;;;;;;9.05;4.28;;;;;;;8.59;54.60;101447.79;1715905;83;21447;-61
2021/03/29 14:52:10;;;;;;;6.22;2.87;;;;;;;8.39;57.42;101447.83;1702434;83;21156;-62
2021/03/29 14:54:41;;;;;;;6.28;3.75;;;;;;;8.25;59.60;101450.82;1702415;84;25315;-65
2021/03/29 14:57:11;;;;;;;8.85;3.70;;;;;;;8.08;62.25;101447.64;1702179;84;21266;-63
2021/03/29 14:59:41;;;;;;;7.05;4.72;;;;;;;7.97;63.89;101449.89;1703403;82;21122;-63
2021/03/29 15:02:13;;;;;;;7.50;4.15;;;;;;;7.87;65.05;101459.44;1699329;83;21447;-62
2021/03/29 15:04:44;;;;;;;7.70;3.05;;;;;;;7.76;64.97;101464.27;1691610;84;21133;-65
2021/03/29 15:07:18;;;;;;;8.03;3.65;;;;;;;7.64;66.00;101462.28;1692451;84;21778;-62